createdAt,value
2022-12-06T00:01:11.720Z,0.70
2022-12-06T00:03:39.871Z,1.90
2022-12-06T00:06:13.718Z,3.20
2022-12-06T00:08:41.413Z,0.70
2022-12-06T00:11:11.055Z,0.70
2022-12-06T00:13:38.740Z,1.50
2022-12-06T00:16:08.225Z,2.00
2022-12-06T00:18:37.246Z,0.60
2022-12-06T00:21:10.636Z,0.70
2022-12-06T00:23:43.231Z,0.70
2022-12-06T00:26:10.913Z,3.30
2022-12-06T00:28:38.810Z,1.30
2022-12-06T00:31:10.308Z,0.70
2022-12-06T00:33:37.924Z,0.70
2022-12-06T00:36:07.633Z,0.70
2022-12-06T00:38:37.260Z,0.70
2022-12-06T00:41:09.559Z,0.70
2022-12-06T00:43:37.203Z,0.70
2022-12-06T00:46:06.898Z,0.70
2022-12-06T00:48:34.717Z,0.70
2022-12-06T00:51:01.581Z,0.70
2022-12-06T00:53:28.515Z,0.70
2022-12-06T00:55:55.812Z,0.70
2022-12-06T00:58:22.946Z,0.80
2022-12-06T01:00:50.610Z,0.70
2022-12-06T01:05:47.907Z,0.80
2022-12-06T01:08:16.227Z,0.80
2022-12-06T01:10:51.007Z,0.70
2022-12-06T01:13:17.850Z,0.80
2022-12-06T01:15:44.730Z,2.20
2022-12-06T01:20:38.778Z,0.80
2022-12-06T01:23:05.560Z,0.80
2022-12-06T01:25:35.923Z,0.80
2022-12-06T01:28:03.787Z,0.80
2022-12-06T01:30:31.070Z,0.70
2022-12-06T01:32:58.054Z,0.70
2022-12-06T01:35:24.868Z,0.80
2022-12-06T01:37:51.673Z,0.70
2022-12-06T01:40:18.617Z,0.80
2022-12-06T01:42:45.451Z,0.80
2022-12-06T01:45:12.351Z,0.80
2022-12-06T01:47:42.718Z,0.80
2022-12-06T01:50:12.997Z,0.80
2022-12-06T01:52:52.016Z,0.80
2022-12-06T01:55:22.258Z,0.90
2022-12-06T01:57:51.400Z,0.70
2022-12-06T02:00:18.683Z,0.80
2022-12-06T02:02:46.226Z,0.80
2022-12-06T02:05:14.521Z,0.80
2022-12-06T02:07:42.785Z,0.70
2022-12-06T02:10:10.610Z,0.80
2022-12-06T02:12:37.465Z,0.80
2022-12-06T02:15:06.048Z,0.80
2022-12-06T02:20:24.452Z,0.80
2022-12-06T02:23:27.044Z,0.90
2022-12-06T02:26:26.983Z,0.80
2022-12-06T02:28:59.781Z,0.90
2022-12-06T02:31:59.437Z,0.80
2022-12-06T02:34:50.172Z,1.00
2022-12-06T02:37:26.569Z,0.90
2022-12-06T02:39:58.574Z,0.90
2022-12-06T02:42:47.628Z,0.90
2022-12-06T02:45:32.379Z,0.80
2022-12-06T02:48:03.313Z,0.80
2022-12-06T02:50:35.263Z,0.80
2022-12-06T02:53:04.355Z,0.80
2022-12-06T02:55:33.245Z,0.80
2022-12-06T02:58:00.104Z,1.60
2022-12-06T03:00:33.243Z,1.40
2022-12-06T03:03:27.981Z,0.90
2022-12-06T03:06:03.692Z,0.80
2022-12-06T03:08:51.417Z,0.90
2022-12-06T03:11:18.809Z,0.90
2022-12-06T03:13:48.653Z,0.90
2022-12-06T03:16:35.344Z,0.90
2022-12-06T03:19:24.931Z,0.90
2022-12-06T03:22:06.617Z,1.00
2022-12-06T03:24:35.897Z,0.90
2022-12-06T03:27:10.528Z,0.90
2022-12-06T03:29:41.179Z,1.00
2022-12-06T03:32:10.289Z,1.00
2022-12-06T03:34:40.283Z,1.00
2022-12-06T03:37:12.226Z,1.00
2022-12-06T03:40:08.159Z,1.00
2022-12-06T03:42:35.395Z,1.00
2022-12-06T03:45:03.809Z,1.00
2022-12-06T03:47:53.948Z,1.00
2022-12-06T03:50:29.448Z,1.00
2022-12-06T03:52:56.496Z,1.00
2022-12-06T03:55:23.451Z,1.00
2022-12-06T03:57:50.265Z,1.00
2022-12-06T04:00:17.402Z,1.00
2022-12-06T04:02:44.299Z,1.00
2022-12-06T04:05:11.242Z,2.50
2022-12-06T04:07:38.249Z,2.30
2022-12-06T04:10:05.907Z,1.40
2022-12-06T04:13:07.363Z,1.10
2022-12-06T04:15:37.248Z,2.60
2022-12-06T04:18:16.488Z,3.70
2022-12-06T04:21:22.959Z,1.10
2022-12-06T04:23:51.862Z,1.10
2022-12-06T04:26:21.770Z,1.10
2022-12-06T04:29:09.029Z,3.40
2022-12-06T04:31:54.959Z,1.30
2022-12-06T04:34:40.414Z,1.10
2022-12-06T04:37:26.007Z,3.50
2022-12-06T04:39:52.840Z,1.20
2022-12-06T04:42:38.228Z,2.40
2022-12-06T04:45:06.643Z,1.10
2022-12-06T04:47:33.501Z,1.10
2022-12-06T04:50:00.719Z,1.80
2022-12-06T04:52:31.376Z,1.10
2022-12-06T04:55:01.057Z,1.10
2022-12-06T04:57:28.057Z,1.10
2022-12-06T04:59:54.850Z,2.20
2022-12-06T05:02:21.711Z,3.30
2022-12-06T05:04:48.622Z,2.10
2022-12-06T05:07:15.457Z,2.40
2022-12-06T05:09:42.493Z,1.50
2022-12-06T05:12:09.344Z,3.10
2022-12-06T05:14:36.308Z,1.10
2022-12-06T05:17:03.519Z,1.10
2022-12-06T05:19:30.467Z,1.10
2022-12-06T05:21:57.331Z,1.20
2022-12-06T05:24:24.193Z,1.10
2022-12-06T05:26:51.047Z,1.20
2022-12-06T05:29:18.023Z,1.20
2022-12-06T05:31:45.020Z,2.50
2022-12-06T05:34:12.076Z,4.20
2022-12-06T05:36:38.957Z,2.20
2022-12-06T05:39:05.856Z,1.40
2022-12-06T05:41:32.679Z,1.10
2022-12-06T05:43:59.506Z,1.20
2022-12-06T05:46:26.360Z,1.10
2022-12-06T05:48:53.223Z,1.10
2022-12-06T05:51:20.073Z,1.10
2022-12-06T05:53:46.902Z,2.70
2022-12-06T05:56:13.962Z,1.20
2022-12-06T05:58:41.260Z,1.70
2022-12-06T06:01:08.945Z,1.20
2022-12-06T06:03:36.411Z,2.70
2022-12-06T06:06:04.122Z,1.20
2022-12-06T06:08:31.621Z,1.20
2022-12-06T06:10:59.262Z,1.20
2022-12-06T06:13:26.278Z,1.20
2022-12-06T06:15:53.220Z,3.50
2022-12-06T06:18:20.475Z,1.30
2022-12-06T06:20:52.535Z,1.10
2022-12-06T06:23:20.414Z,1.20
2022-12-06T06:25:47.693Z,1.20
2022-12-06T06:28:15.238Z,1.30
2022-12-06T06:30:42.196Z,1.30
2022-12-06T06:33:09.300Z,1.20
2022-12-06T06:35:36.956Z,1.30
2022-12-06T06:38:04.313Z,1.20
2022-12-06T06:40:31.418Z,1.20
2022-12-06T06:42:58.605Z,1.30
2022-12-06T06:47:56.044Z,1.20
2022-12-06T06:50:22.924Z,1.30
2022-12-06T06:55:17.132Z,1.30
2022-12-06T06:57:44.129Z,1.20
2022-12-06T07:00:11.707Z,1.30
2022-12-06T07:02:39.666Z,1.20
2022-12-06T07:05:07.389Z,1.30
2022-12-06T07:07:34.440Z,1.20
2022-12-06T07:10:01.594Z,1.30
2022-12-06T07:12:28.767Z,1.30
2022-12-06T07:14:55.861Z,1.30
2022-12-06T07:17:24.666Z,1.20
2022-12-06T07:19:51.556Z,1.30
2022-12-06T07:22:18.383Z,1.30
2022-12-06T07:24:50.740Z,1.30
2022-12-06T07:29:46.397Z,1.40
2022-12-06T07:32:13.241Z,1.40
2022-12-06T07:34:40.124Z,1.30
2022-12-06T07:37:06.984Z,1.50
2022-12-06T07:39:33.792Z,1.50
2022-12-06T07:42:19.154Z,1.50
2022-12-06T07:45:05.649Z,1.40
2022-12-06T07:47:37.505Z,1.60
2022-12-06T07:50:06.505Z,1.70
2022-12-06T07:52:35.927Z,1.60
2022-12-06T07:55:04.382Z,1.70
2022-12-06T07:57:31.218Z,1.70
2022-12-06T07:59:58.467Z,1.70
2022-12-06T08:02:27.378Z,1.60
2022-12-06T08:04:55.301Z,1.70
2022-12-06T08:07:23.414Z,1.60
2022-12-06T08:09:52.079Z,1.50
2022-12-06T08:12:19.775Z,1.60
2022-12-06T08:14:47.205Z,1.50
2022-12-06T08:17:14.294Z,1.70
2022-12-06T08:19:41.709Z,1.70
2022-12-06T08:22:08.597Z,1.70
2022-12-06T08:24:35.461Z,1.70
2022-12-06T08:29:29.533Z,1.70
2022-12-06T08:31:56.453Z,1.70
2022-12-06T08:34:23.275Z,1.60
2022-12-06T08:39:17.355Z,1.70
2022-12-06T08:41:58.018Z,1.80
2022-12-06T08:44:29.214Z,1.90
2022-12-06T08:46:57.273Z,1.90
2022-12-06T08:49:25.471Z,1.70
2022-12-06T08:51:53.392Z,1.70
2022-12-06T08:54:23.681Z,-2.00
2022-12-06T08:56:51.334Z,1.80
2022-12-06T08:59:18.806Z,1.90
2022-12-06T09:01:46.684Z,2.00
2022-12-06T09:04:14.593Z,1.90
2022-12-06T09:06:43.839Z,2.00
2022-12-06T09:09:12.200Z,2.10
2022-12-06T09:11:40.019Z,2.10
2022-12-06T09:14:09.267Z,4.00
2022-12-06T09:16:36.616Z,2.20
2022-12-06T09:19:03.943Z,2.10
2022-12-06T09:21:30.889Z,2.10
2022-12-06T09:23:58.744Z,2.20
2022-12-06T09:26:27.467Z,2.10
2022-12-06T09:28:55.719Z,2.20
2022-12-06T09:31:23.139Z,2.40
2022-12-06T09:33:50.395Z,2.50
2022-12-06T09:36:22.711Z,2.50
2022-12-06T09:39:04.247Z,2.50
2022-12-06T09:41:49.280Z,2.50
2022-12-06T09:44:57.161Z,2.50
2022-12-06T09:48:03.840Z,2.60
2022-12-06T09:50:36.746Z,2.70
2022-12-06T09:53:42.050Z,2.60
2022-12-06T09:56:22.275Z,2.50
2022-12-06T09:59:07.635Z,2.70
2022-12-06T10:02:10.989Z,2.70
2022-12-06T10:05:06.103Z,2.70
2022-12-06T10:07:57.451Z,2.70
2022-12-06T10:11:08.533Z,2.70
2022-12-06T10:13:50.492Z,2.50
2022-12-06T10:16:55.317Z,2.50
2022-12-06T10:19:33.858Z,2.50
2022-12-06T10:22:24.456Z,2.50
2022-12-06T10:24:54.136Z,2.50
2022-12-06T10:27:30.832Z,2.60
2022-12-06T10:30:15.486Z,2.60
2022-12-06T10:33:06.515Z,2.50
2022-12-06T10:35:56.072Z,2.50
2022-12-06T10:38:46.203Z,2.50
2022-12-06T10:41:22.516Z,2.50
2022-12-06T10:43:52.456Z,2.50
2022-12-06T10:46:51.765Z,2.50
2022-12-06T10:49:48.268Z,2.50
2022-12-06T10:52:35.179Z,2.50
2022-12-06T10:55:32.930Z,2.50
2022-12-06T10:58:24.745Z,2.50
2022-12-06T11:01:00.050Z,2.50
2022-12-06T11:03:34.211Z,2.60
2022-12-06T11:06:10.142Z,2.60
2022-12-06T11:08:40.054Z,2.60
2022-12-06T11:11:16.255Z,2.60
2022-12-06T11:13:51.282Z,2.60
2022-12-06T11:16:27.403Z,2.70
2022-12-06T11:19:01.035Z,2.70
2022-12-06T11:24:19.659Z,2.80
2022-12-06T11:26:52.629Z,2.70
2022-12-06T11:29:19.794Z,2.60
2022-12-06T11:31:58.755Z,2.50
2022-12-06T11:34:49.256Z,2.50
2022-12-06T11:37:19.894Z,2.60
2022-12-06T11:39:50.777Z,2.60
2022-12-06T11:42:23.782Z,2.60
2022-12-06T11:44:59.304Z,2.60
2022-12-06T11:47:26.430Z,2.60
2022-12-06T11:49:55.365Z,2.70
2022-12-06T11:52:35.679Z,2.70
2022-12-06T11:55:16.634Z,2.60
2022-12-06T11:57:50.723Z,2.50
2022-12-06T12:00:23.500Z,2.50
2022-12-06T12:02:53.867Z,2.50
2022-12-06T12:05:25.571Z,2.60
2022-12-06T12:08:15.245Z,2.50
2022-12-06T12:10:45.009Z,2.50
2022-12-06T12:13:39.032Z,2.60
2022-12-06T12:16:23.934Z,2.50
2022-12-06T12:19:32.400Z,2.50
2022-12-06T12:22:13.191Z,2.60
2022-12-06T12:27:40.671Z,2.60
2022-12-06T12:30:19.562Z,2.60
2022-12-06T12:32:48.729Z,2.70
2022-12-06T12:35:21.885Z,2.70
2022-12-06T12:37:58.872Z,2.60
2022-12-06T12:40:30.431Z,2.60
2022-12-06T12:43:13.459Z,2.70
2022-12-06T12:46:02.690Z,2.60
2022-12-06T12:48:30.279Z,2.50
2022-12-06T12:50:59.632Z,2.50
2022-12-06T12:53:37.742Z,2.40
2022-12-06T12:56:14.834Z,2.30
2022-12-06T12:58:43.229Z,2.40
2022-12-06T13:01:19.069Z,2.40
2022-12-06T13:03:51.784Z,2.50
2022-12-06T13:06:47.686Z,2.40
2022-12-06T13:09:42.442Z,2.40
2022-12-06T13:12:18.932Z,2.40
2022-12-06T13:14:52.547Z,2.50
2022-12-06T13:17:22.462Z,2.40
2022-12-06T13:19:59.346Z,2.40
2022-12-06T13:22:31.533Z,2.40
2022-12-06T13:25:06.618Z,2.40
2022-12-06T13:27:44.061Z,2.50
2022-12-06T13:30:17.273Z,2.50
2022-12-06T13:32:50.234Z,2.50
2022-12-06T13:35:23.505Z,2.60
2022-12-06T13:37:57.088Z,2.50
2022-12-06T13:40:33.065Z,2.50
2022-12-06T13:43:26.054Z,2.50
2022-12-06T13:46:24.326Z,2.40
2022-12-06T13:48:52.058Z,2.50
2022-12-06T13:51:31.055Z,2.50
2022-12-06T13:54:06.664Z,2.50
2022-12-06T13:56:33.493Z,2.40
2022-12-06T13:59:20.559Z,2.40
2022-12-06T14:01:51.647Z,2.40
2022-12-06T14:06:57.322Z,2.40
2022-12-06T14:09:25.965Z,2.40
2022-12-06T14:11:53.431Z,2.40
2022-12-06T14:14:25.378Z,2.40
2022-12-06T14:16:53.513Z,2.30
2022-12-06T14:19:26.693Z,2.30
2022-12-06T14:22:02.695Z,2.20
2022-12-06T14:24:43.161Z,2.10
2022-12-06T14:27:21.941Z,2.20
2022-12-06T14:30:24.796Z,2.20
2022-12-06T14:32:54.565Z,2.10
2022-12-06T14:35:36.392Z,2.20
2022-12-06T14:38:23.549Z,2.10
2022-12-06T14:41:10.027Z,2.10
2022-12-06T14:43:37.386Z,2.10
2022-12-06T14:46:12.296Z,2.10
2022-12-06T14:48:58.290Z,2.00
2022-12-06T14:51:40.965Z,2.00
2022-12-06T14:54:44.769Z,2.10
2022-12-06T14:57:32.407Z,2.00
2022-12-06T15:00:27.797Z,1.90
2022-12-06T15:03:12.964Z,2.00
2022-12-06T15:05:43.877Z,1.90
2022-12-06T15:08:32.575Z,1.90
2022-12-06T15:11:03.987Z,1.90
2022-12-06T15:13:31.282Z,1.90
2022-12-06T15:16:14.096Z,2.00
2022-12-06T15:18:59.200Z,1.90
2022-12-06T15:21:26.087Z,1.80
2022-12-06T15:23:55.019Z,1.90
2022-12-06T15:26:24.422Z,1.80
2022-12-06T15:28:52.055Z,1.80
2022-12-06T15:31:23.678Z,1.80
2022-12-06T15:33:50.825Z,1.90
2022-12-06T15:36:25.366Z,1.80
2022-12-06T15:38:52.161Z,1.80
2022-12-06T15:41:22.419Z,1.80
2022-12-06T15:43:50.260Z,1.80
2022-12-06T15:52:32.009Z,1.70
2022-12-06T15:54:59.367Z,1.70
2022-12-06T16:01:19.997Z,1.60
2022-12-06T16:03:47.569Z,1.50
2022-12-06T16:06:19.546Z,1.60
2022-12-06T16:08:47.108Z,1.70
2022-12-06T16:11:16.866Z,1.60
2022-12-06T16:13:44.092Z,1.70
2022-12-06T16:16:11.837Z,1.70
2022-12-06T16:18:39.042Z,1.70
2022-12-06T16:21:06.438Z,1.70
2022-12-06T16:26:45.300Z,1.70
2022-12-06T16:29:23.268Z,1.70
2022-12-06T16:31:51.542Z,1.70
2022-12-06T16:34:18.803Z,1.70
2022-12-06T16:37:08.680Z,1.60
2022-12-06T16:39:35.721Z,1.70
2022-12-06T16:42:04.802Z,1.70
2022-12-06T16:44:32.018Z,1.70
2022-12-06T16:46:59.180Z,1.80
2022-12-06T16:49:45.848Z,1.70
2022-12-06T16:52:15.105Z,1.70
2022-12-06T16:57:11.567Z,1.60
2022-12-06T16:59:38.562Z,1.70
2022-12-06T17:02:27.117Z,1.80
2022-12-06T17:04:55.133Z,1.60
2022-12-06T17:07:22.336Z,1.80
2022-12-06T17:09:49.272Z,1.80
2022-12-06T17:12:16.802Z,1.80
2022-12-06T17:14:44.404Z,1.80
2022-12-06T17:17:21.481Z,1.80
2022-12-06T17:19:49.469Z,1.80
2022-12-06T17:22:16.854Z,1.80
2022-12-06T17:24:44.083Z,1.80
2022-12-06T17:27:14.508Z,1.70
2022-12-06T17:29:43.586Z,1.70
2022-12-06T17:32:11.567Z,1.80
2022-12-06T17:34:38.650Z,1.80
2022-12-06T17:37:06.279Z,1.70
2022-12-06T17:39:33.480Z,1.80
2022-12-06T17:42:19.178Z,1.80
2022-12-06T17:44:46.245Z,1.80
2022-12-06T17:47:13.259Z,1.60
2022-12-06T17:49:40.139Z,1.80
2022-12-06T17:52:07.098Z,1.80
2022-12-06T17:54:33.982Z,1.80
2022-12-06T17:57:00.895Z,1.80
2022-12-06T17:59:30.469Z,1.80
2022-12-06T18:02:16.970Z,1.70
2022-12-06T18:04:45.216Z,1.70
2022-12-06T18:07:13.428Z,1.80
2022-12-06T18:09:40.736Z,1.70
2022-12-06T18:12:12.293Z,1.60
2022-12-06T18:14:39.338Z,1.70
2022-12-06T18:17:06.369Z,1.70
2022-12-06T18:19:33.724Z,1.70
2022-12-06T18:22:00.662Z,1.70
2022-12-06T18:24:32.095Z,1.70
2022-12-06T18:27:02.121Z,1.70
2022-12-06T18:29:29.179Z,1.70
2022-12-06T18:31:56.135Z,1.70
2022-12-06T18:34:23.434Z,1.60
2022-12-06T18:36:51.110Z,1.90
2022-12-06T18:39:24.479Z,1.80
2022-12-06T18:41:53.276Z,1.70
2022-12-06T18:44:20.696Z,1.80
2022-12-06T18:49:15.666Z,1.80
2022-12-06T18:51:42.816Z,1.70
2022-12-06T18:54:11.144Z,1.80
2022-12-06T18:56:38.033Z,1.80
2022-12-06T18:59:08.812Z,1.90
2022-12-06T19:01:38.835Z,1.80
2022-12-06T19:04:08.280Z,1.80
2022-12-06T19:06:38.053Z,1.80
2022-12-06T19:09:09.546Z,1.80
2022-12-06T19:11:37.865Z,1.80
2022-12-06T19:14:05.778Z,1.60
2022-12-06T19:16:42.238Z,1.70
2022-12-06T19:31:25.860Z,1.80
2022-12-06T19:33:53.123Z,1.90
2022-12-06T19:36:23.339Z,1.80
2022-12-06T19:38:59.167Z,1.80
2022-12-06T19:41:26.674Z,1.90
2022-12-06T19:44:12.411Z,2.00
2022-12-06T19:46:42.713Z,1.90
2022-12-06T19:49:10.599Z,1.70
2022-12-06T19:51:39.861Z,1.80
2022-12-06T19:54:07.778Z,1.80
2022-12-06T19:56:35.594Z,1.90
2022-12-06T19:59:11.851Z,1.90
2022-12-06T20:01:40.993Z,1.90
2022-12-06T20:04:08.620Z,1.90
2022-12-06T20:06:36.631Z,1.90
2022-12-06T20:09:05.091Z,1.90
2022-12-06T20:11:53.665Z,1.90
2022-12-06T20:14:21.086Z,1.90
2022-12-06T20:16:48.428Z,2.20
2022-12-06T20:19:16.086Z,1.90
2022-12-06T20:21:43.918Z,1.90
2022-12-06T20:24:12.866Z,2.00
2022-12-06T20:26:40.117Z,1.90
2022-12-06T20:29:08.032Z,2.00
2022-12-06T20:31:35.828Z,2.00
2022-12-06T20:34:04.690Z,2.00
2022-12-06T20:36:33.387Z,1.90
2022-12-06T20:39:01.648Z,1.90
2022-12-06T20:41:30.962Z,1.90
2022-12-06T20:43:58.150Z,1.90
2022-12-06T20:46:31.418Z,2.00
2022-12-06T20:49:03.785Z,1.90
2022-12-06T20:51:32.329Z,1.90
2022-12-06T20:54:02.701Z,1.80
2022-12-06T20:56:32.040Z,2.00
2022-12-06T20:59:01.399Z,1.90
2022-12-06T21:01:35.577Z,1.90
2022-12-06T21:06:30.108Z,1.90
2022-12-06T21:08:57.013Z,1.70
2022-12-06T21:11:25.272Z,1.90
2022-12-06T21:13:54.295Z,1.90
2022-12-06T21:16:32.381Z,1.90
2022-12-06T21:19:05.841Z,1.80
2022-12-06T21:21:37.590Z,2.00
2022-12-06T21:24:16.847Z,1.90
2022-12-06T21:26:44.072Z,1.90
2022-12-06T21:29:28.382Z,1.90
2022-12-06T21:31:56.922Z,1.90
2022-12-06T21:36:51.353Z,1.90
2022-12-06T21:39:18.198Z,1.90
2022-12-06T21:41:45.933Z,1.90
2022-12-06T21:44:12.852Z,1.90
2022-12-06T21:46:39.799Z,1.90
2022-12-06T21:49:06.922Z,1.90
2022-12-06T21:51:33.896Z,3.80
2022-12-06T21:54:01.568Z,1.90
2022-12-06T21:56:30.493Z,1.90
2022-12-06T21:59:00.214Z,1.90
2022-12-06T22:01:29.603Z,1.90
2022-12-06T22:03:59.297Z,2.00
2022-12-06T22:06:26.909Z,1.90
2022-12-06T22:09:01.961Z,2.00
2022-12-06T22:11:30.321Z,2.00
2022-12-06T22:13:59.247Z,2.00
2022-12-06T22:16:26.951Z,2.00
2022-12-06T22:18:56.631Z,2.00
2022-12-06T22:21:26.192Z,2.00
2022-12-06T22:23:53.424Z,2.10
2022-12-06T22:26:22.334Z,2.00
2022-12-06T22:28:49.697Z,2.00
2022-12-06T22:31:29.651Z,2.00
2022-12-06T22:33:57.724Z,2.10
2022-12-06T22:36:24.820Z,2.10
2022-12-06T22:38:53.922Z,2.00
2022-12-06T22:41:21.695Z,2.10
2022-12-06T22:43:53.722Z,2.10
2022-12-06T22:46:21.877Z,2.00
2022-12-06T22:48:49.739Z,2.00
2022-12-06T22:51:25.469Z,2.00
2022-12-06T22:53:55.903Z,2.10
2022-12-06T22:56:23.419Z,2.00
2022-12-06T22:58:53.207Z,2.00
2022-12-06T23:01:24.065Z,2.30
2022-12-06T23:03:52.566Z,2.10
2022-12-06T23:06:22.149Z,2.00
2022-12-06T23:08:49.380Z,2.10
2022-12-06T23:11:22.467Z,2.10
2022-12-06T23:13:49.624Z,2.10
2022-12-06T23:16:19.383Z,2.00
2022-12-06T23:18:47.106Z,2.10
2022-12-06T23:21:22.094Z,2.10
2022-12-06T23:23:55.527Z,2.10
2022-12-06T23:26:31.390Z,2.10
2022-12-06T23:28:58.722Z,2.10
2022-12-06T23:31:29.184Z,2.20
2022-12-06T23:34:00.617Z,2.10
2022-12-06T23:36:30.322Z,2.10
2022-12-06T23:38:57.237Z,2.00
2022-12-06T23:41:27.015Z,2.20
2022-12-06T23:43:55.194Z,2.20
2022-12-06T23:46:24.853Z,2.00
2022-12-06T23:48:52.746Z,2.20
2022-12-06T23:51:22.508Z,2.20
2022-12-06T23:53:57.537Z,2.20
2022-12-06T23:56:26.777Z,2.20
2022-12-06T23:58:53.943Z,2.20
